sensor_id;sensor_type;location;lat;lon;timestamp;pressure;altitude;pressure_sealevel;temperature;humidity
11712;BME280;5912;51.034;6.984;2024-02-04T00:01:41;56570.69;;;-142.13;75.83
11712;BME280;5912;51.034;6.984;2024-02-04T00:04:06;56552.66;;;-142.13;75.97
11712;BME280;5912;51.034;6.984;2024-02-04T00:06:32;56572.69;;;-142.13;75.83
11712;BME280;5912;51.034;6.984;2024-02-04T00:08:57;56556.66;;;-142.13;76.30
11712;BME280;5912;51.034;6.984;2024-02-04T00:11:22;56544.63;;;-142.13;76.07
11712;BME280;5912;51.034;6.984;2024-02-04T00:13:48;56550.63;;;-142.13;76.26
11712;BME280;5912;51.034;6.984;2024-02-04T00:16:13;56580.69;;;-142.13;76.21
11712;BME280;5912;51.034;6.984;2024-02-04T00:18:38;56584.69;;;-142.13;76.62
11712;BME280;5912;51.034;6.984;2024-02-04T00:21:04;56546.63;;;-142.13;76.31
11712;BME280;5912;51.034;6.984;2024-02-04T00:23:29;56568.66;;;-142.13;76.54
11712;BME280;5912;51.034;6.984;2024-02-04T00:25:55;56570.69;;;-142.13;76.43
11712;BME280;5912;51.034;6.984;2024-02-04T00:28:20;56538.63;;;-142.13;76.83
11712;BME280;5912;51.034;6.984;2024-02-04T00:30:46;56576.69;;;-142.13;76.86
11712;BME280;5912;51.034;6.984;2024-02-04T00:33:11;56604.72;;;-142.13;77.37
11712;BME280;5912;51.034;6.984;2024-02-04T00:35:36;56602.72;;;-142.13;77.24
11712;BME280;5912;51.034;6.984;2024-02-04T00:38:02;56582.69;;;-142.13;77.13
11712;BME280;5912;51.034;6.984;2024-02-04T00:40:28;56576.69;;;-142.13;77.25
11712;BME280;5912;51.034;6.984;2024-02-04T00:42:54;56550.63;;;-142.13;77.22
11712;BME280;5912;51.034;6.984;2024-02-04T00:45:19;56570.69;;;-142.13;77.34
11712;BME280;5912;51.034;6.984;2024-02-04T00:47:44;56548.63;;;-142.13;77.62
11712;BME280;5912;51.034;6.984;2024-02-04T00:50:09;56759.00;;;-142.13;77.60
11712;BME280;5912;51.034;6.984;2024-02-04T00:52:35;56592.72;;;-142.13;77.72
11712;BME280;5912;51.034;6.984;2024-02-04T00:55:00;56574.69;;;-142.13;77.58
11712;BME280;5912;51.034;6.984;2024-02-04T00:57:25;56580.69;;;-142.13;77.79
11712;BME280;5912;51.034;6.984;2024-02-04T00:59:51;56582.69;;;-142.13;77.67
11712;BME280;5912;51.034;6.984;2024-02-04T01:02:16;56574.69;;;-142.13;77.62
11712;BME280;5912;51.034;6.984;2024-02-04T01:04:41;56572.69;;;-142.13;77.44
11712;BME280;5912;51.034;6.984;2024-02-04T01:07:07;56530.59;;;-142.13;77.81
11712;BME280;5912;51.034;6.984;2024-02-04T01:09:32;56564.66;;;-142.13;77.80
11712;BME280;5912;51.034;6.984;2024-02-04T01:11:57;56564.66;;;-142.13;77.58
11712;BME280;5912;51.034;6.984;2024-02-04T01:14:23;56546.63;;;-142.13;78.09
11712;BME280;5912;51.034;6.984;2024-02-04T01:16:48;56540.63;;;-142.13;77.92
11712;BME280;5912;51.034;6.984;2024-02-04T01:19:13;56574.69;;;-142.13;78.06
11712;BME280;5912;51.034;6.984;2024-02-04T01:21:39;56580.69;;;-142.13;78.02
11712;BME280;5912;51.034;6.984;2024-02-04T01:24:04;56610.75;;;-142.13;77.97
11712;BME280;5912;51.034;6.984;2024-02-04T01:26:30;56572.69;;;-142.13;78.00
11712;BME280;5912;51.034;6.984;2024-02-04T01:28:55;56558.66;;;-142.13;78.18
11712;BME280;5912;51.034;6.984;2024-02-04T01:31:20;56596.72;;;-142.13;77.81
11712;BME280;5912;51.034;6.984;2024-02-04T01:33:46;56546.63;;;-142.13;77.65
11712;BME280;5912;51.034;6.984;2024-02-04T01:36:11;56592.72;;;-142.13;78.27
11712;BME280;5912;51.034;6.984;2024-02-04T01:38:36;56548.63;;;-142.13;77.97
11712;BME280;5912;51.034;6.984;2024-02-04T01:41:02;56560.66;;;-142.13;78.23
11712;BME280;5912;51.034;6.984;2024-02-04T01:43:27;56580.69;;;-142.13;78.39
11712;BME280;5912;51.034;6.984;2024-02-04T01:45:52;56516.59;;;-142.13;78.04
11712;BME280;5912;51.034;6.984;2024-02-04T01:48:20;56600.72;;;-142.13;78.13
11712;BME280;5912;51.034;6.984;2024-02-04T01:50:47;56540.63;;;-142.13;78.27
11712;BME280;5912;51.034;6.984;2024-02-04T01:53:15;56586.69;;;-142.13;78.09
11712;BME280;5912;51.034;6.984;2024-02-04T01:55:40;56584.69;;;-142.13;78.27
11712;BME280;5912;51.034;6.984;2024-02-04T01:58:06;56570.69;;;-142.13;78.13
11712;BME280;5912;51.034;6.984;2024-02-04T02:00:32;56578.69;;;-142.13;78.40
11712;BME280;5912;51.034;6.984;2024-02-04T02:02:58;56586.69;;;-142.13;78.07
11712;BME280;5912;51.034;6.984;2024-02-04T02:05:25;56584.69;;;-142.13;78.42
11712;BME280;5912;51.034;6.984;2024-02-04T02:07:51;56576.69;;;-142.13;78.27
11712;BME280;5912;51.034;6.984;2024-02-04T02:10:18;56560.66;;;-142.13;78.16
11712;BME280;5912;51.034;6.984;2024-02-04T02:12:50;56564.66;;;-142.13;78.14
11712;BME280;5912;51.034;6.984;2024-02-04T02:15:22;56582.69;;;-142.13;78.25
11712;BME280;5912;51.034;6.984;2024-02-04T02:18:01;56572.69;;;-142.13;78.37
11712;BME280;5912;51.034;6.984;2024-02-04T02:20:54;56584.69;;;-142.13;78.37
11712;BME280;5912;51.034;6.984;2024-02-04T02:23:33;56600.72;;;-142.13;78.46
11712;BME280;5912;51.034;6.984;2024-02-04T02:26:00;56580.69;;;-142.13;78.60
11712;BME280;5912;51.034;6.984;2024-02-04T02:28:25;56552.66;;;-142.13;78.44
11712;BME280;5912;51.034;6.984;2024-02-04T02:30:50;56572.69;;;-142.13;78.73
11712;BME280;5912;51.034;6.984;2024-02-04T02:33:16;56568.66;;;-142.13;78.55
11712;BME280;5912;51.034;6.984;2024-02-04T02:35:43;56568.66;;;-142.13;78.76
11712;BME280;5912;51.034;6.984;2024-02-04T02:38:34;56568.66;;;-142.13;78.50
11712;BME280;5912;51.034;6.984;2024-02-04T02:41:06;56570.69;;;-142.13;78.74
11712;BME280;5912;51.034;6.984;2024-02-04T02:43:34;56580.69;;;-142.13;78.62
11712;BME280;5912;51.034;6.984;2024-02-04T02:46:00;56588.69;;;-142.13;78.55
11712;BME280;5912;51.034;6.984;2024-02-04T02:48:25;56600.72;;;-142.13;78.77
11712;BME280;5912;51.034;6.984;2024-02-04T02:50:51;56590.72;;;-142.13;78.39
11712;BME280;5912;51.034;6.984;2024-02-04T02:53:16;56546.63;;;-142.13;78.61
11712;BME280;5912;51.034;6.984;2024-02-04T02:55:44;56580.69;;;-142.13;78.54
11712;BME280;5912;51.034;6.984;2024-02-04T02:58:11;56548.63;;;-142.13;78.48
11712;BME280;5912;51.034;6.984;2024-02-04T03:00:37;56566.66;;;-142.13;78.37
11712;BME280;5912;51.034;6.984;2024-02-04T03:03:03;56580.69;;;-142.13;78.52
11712;BME280;5912;51.034;6.984;2024-02-04T03:05:28;56552.66;;;-142.13;78.48
11712;BME280;5912;51.034;6.984;2024-02-04T03:07:53;56574.69;;;-142.13;78.65
11712;BME280;5912;51.034;6.984;2024-02-04T03:10:18;56582.69;;;-142.13;78.34
11712;BME280;5912;51.034;6.984;2024-02-04T03:12:44;56560.66;;;-142.13;78.44
11712;BME280;5912;51.034;6.984;2024-02-04T03:15:09;56592.72;;;-142.13;78.80
11712;BME280;5912;51.034;6.984;2024-02-04T03:17:34;56576.69;;;-142.13;78.64
11712;BME280;5912;51.034;6.984;2024-02-04T03:20:00;56560.66;;;-142.13;78.54
11712;BME280;5912;51.034;6.984;2024-02-04T03:22:25;56580.69;;;-142.13;78.29
11712;BME280;5912;51.034;6.984;2024-02-04T03:24:51;56564.66;;;-142.13;78.61
11712;BME280;5912;51.034;6.984;2024-02-04T03:27:17;56568.66;;;-142.13;78.50
11712;BME280;5912;51.034;6.984;2024-02-04T03:29:43;56570.69;;;-142.13;78.87
11712;BME280;5912;51.034;6.984;2024-02-04T03:32:08;56566.66;;;-142.13;78.91
11712;BME280;5912;51.034;6.984;2024-02-04T03:34:33;56580.69;;;-142.13;78.71
11712;BME280;5912;51.034;6.984;2024-02-04T03:37:00;56580.69;;;-142.13;78.62
11712;BME280;5912;51.034;6.984;2024-02-04T03:39:26;56594.72;;;-142.13;78.48
11712;BME280;5912;51.034;6.984;2024-02-04T03:41:51;56536.63;;;-142.13;78.32
11712;BME280;5912;51.034;6.984;2024-02-04T03:44:16;56580.69;;;-142.13;78.61
11712;BME280;5912;51.034;6.984;2024-02-04T03:46:43;56562.66;;;-142.13;78.49
11712;BME280;5912;51.034;6.984;2024-02-04T03:49:08;56564.66;;;-142.13;78.50
11712;BME280;5912;51.034;6.984;2024-02-04T03:51:34;56554.66;;;-142.13;78.61
11712;BME280;5912;51.034;6.984;2024-02-04T03:53:59;56538.63;;;-142.13;78.32
11712;BME280;5912;51.034;6.984;2024-02-04T03:56:25;56576.69;;;-142.13;78.25
11712;BME280;5912;51.034;6.984;2024-02-04T03:58:50;56576.69;;;-142.13;78.34
11712;BME280;5912;51.034;6.984;2024-02-04T04:01:15;56572.69;;;-142.13;78.76
11712;BME280;5912;51.034;6.984;2024-02-04T04:03:42;56620.75;;;-142.13;78.74
11712;BME280;5912;51.034;6.984;2024-02-04T04:06:07;56548.63;;;-142.13;78.42
11712;BME280;5912;51.034;6.984;2024-02-04T04:08:34;56574.69;;;-142.13;78.27
11712;BME280;5912;51.034;6.984;2024-02-04T04:10:59;56560.66;;;-142.13;78.13
11712;BME280;5912;51.034;6.984;2024-02-04T04:13:24;56552.66;;;-142.13;77.93
11712;BME280;5912;51.034;6.984;2024-02-04T04:15:50;56574.69;;;-142.13;78.00
11712;BME280;5912;51.034;6.984;2024-02-04T04:18:16;56582.69;;;-142.13;78.03
11712;BME280;5912;51.034;6.984;2024-02-04T04:20:41;56574.69;;;-142.13;77.90
11712;BME280;5912;51.034;6.984;2024-02-04T04:23:06;56604.72;;;-142.13;77.79
11712;BME280;5912;51.034;6.984;2024-02-04T04:25:32;56544.63;;;-142.13;77.66
11712;BME280;5912;51.034;6.984;2024-02-04T04:27:58;56536.63;;;-142.13;77.67
11712;BME280;5912;51.034;6.984;2024-02-04T04:30:23;56580.69;;;-142.13;77.76
11712;BME280;5912;51.034;6.984;2024-02-04T04:32:49;56556.66;;;-142.13;77.88
11712;BME280;5912;51.034;6.984;2024-02-04T04:35:14;56564.66;;;-142.13;77.77
11712;BME280;5912;51.034;6.984;2024-02-04T04:37:39;56548.63;;;-142.13;77.55
11712;BME280;5912;51.034;6.984;2024-02-04T04:40:05;56554.66;;;-142.13;77.53
11712;BME280;5912;51.034;6.984;2024-02-04T04:42:31;56548.63;;;-142.13;77.74
11712;BME280;5912;51.034;6.984;2024-02-04T04:44:56;56582.69;;;-142.13;78.70
11712;BME280;5912;51.034;6.984;2024-02-04T04:47:21;56506.56;;;-142.13;79.28
11712;BME280;5912;51.034;6.984;2024-02-04T04:49:47;56570.69;;;-142.13;78.44
11712;BME280;5912;51.034;6.984;2024-02-04T04:52:12;56574.69;;;-142.13;77.96
11712;BME280;5912;51.034;6.984;2024-02-04T04:54:39;56532.63;;;-142.13;77.52
11712;BME280;5912;51.034;6.984;2024-02-04T04:57:04;56552.66;;;-142.13;77.42
11712;BME280;5912;51.034;6.984;2024-02-04T04:59:30;56568.66;;;-142.13;77.39
11712;BME280;5912;51.034;6.984;2024-02-04T05:01:55;56572.69;;;-142.13;77.34
11712;BME280;5912;51.034;6.984;2024-02-04T05:04:20;56550.63;;;-142.13;77.32
11712;BME280;5912;51.034;6.984;2024-02-04T05:06:50;56584.69;;;-142.13;77.19
11712;BME280;5912;51.034;6.984;2024-02-04T05:09:15;56592.72;;;-142.13;77.11
11712;BME280;5912;51.034;6.984;2024-02-04T05:11:41;56544.63;;;-142.13;77.09
11712;BME280;5912;51.034;6.984;2024-02-04T05:14:06;56574.69;;;-142.13;76.96
11712;BME280;5912;51.034;6.984;2024-02-04T05:16:31;56544.63;;;-142.13;76.71
11712;BME280;5912;51.034;6.984;2024-02-04T05:18:57;56532.63;;;-142.13;76.85
11712;BME280;5912;51.034;6.984;2024-02-04T05:21:22;56562.66;;;-142.13;76.79
11712;BME280;5912;51.034;6.984;2024-02-04T05:23:47;56570.69;;;-142.13;76.84
11712;BME280;5912;51.034;6.984;2024-02-04T05:26:13;56556.66;;;-142.13;76.99
11712;BME280;5912;51.034;6.984;2024-02-04T05:28:38;56542.63;;;-142.13;76.97
11712;BME280;5912;51.034;6.984;2024-02-04T05:31:03;56568.66;;;-142.13;76.76
11712;BME280;5912;51.034;6.984;2024-02-04T05:33:29;56552.66;;;-142.13;76.72
11712;BME280;5912;51.034;6.984;2024-02-04T05:35:54;56576.69;;;-142.13;76.69
11712;BME280;5912;51.034;6.984;2024-02-04T05:38:21;56554.66;;;-142.13;76.88
11712;BME280;5912;51.034;6.984;2024-02-04T05:40:46;56568.66;;;-142.13;76.84
11712;BME280;5912;51.034;6.984;2024-02-04T05:43:12;56570.69;;;-142.13;76.90
11712;BME280;5912;51.034;6.984;2024-02-04T05:45:37;56544.63;;;-142.13;76.73
11712;BME280;5912;51.034;6.984;2024-02-04T05:48:09;56558.66;;;-142.13;77.01
11712;BME280;5912;51.034;6.984;2024-02-04T05:50:34;56578.69;;;-142.13;77.02
11712;BME280;5912;51.034;6.984;2024-02-04T05:53:00;56560.66;;;-142.13;76.94
11712;BME280;5912;51.034;6.984;2024-02-04T05:55:25;56548.63;;;-142.13;76.86
11712;BME280;5912;51.034;6.984;2024-02-04T05:57:50;56544.63;;;-142.13;76.72
11712;BME280;5912;51.034;6.984;2024-02-04T06:00:16;56552.66;;;-142.13;77.05
11712;BME280;5912;51.034;6.984;2024-02-04T06:02:41;56540.63;;;-142.13;77.03
11712;BME280;5912;51.034;6.984;2024-02-04T06:05:09;56554.66;;;-142.13;76.81
11712;BME280;5912;51.034;6.984;2024-02-04T06:07:34;56562.66;;;-142.13;76.83
11712;BME280;5912;51.034;6.984;2024-02-04T06:09:59;56550.63;;;-142.13;76.70
11712;BME280;5912;51.034;6.984;2024-02-04T06:12:25;56578.69;;;-142.13;76.82
11712;BME280;5912;51.034;6.984;2024-02-04T06:14:50;56586.69;;;-142.13;76.72
11712;BME280;5912;51.034;6.984;2024-02-04T06:17:16;56536.63;;;-142.13;76.71
11712;BME280;5912;51.034;6.984;2024-02-04T06:19:41;56560.66;;;-142.13;76.67
11712;BME280;5912;51.034;6.984;2024-02-04T06:22:06;56576.69;;;-142.13;76.51
11712;BME280;5912;51.034;6.984;2024-02-04T06:24:32;56546.63;;;-142.13;76.65
11712;BME280;5912;51.034;6.984;2024-02-04T06:26:57;56564.66;;;-142.13;76.37
11712;BME280;5912;51.034;6.984;2024-02-04T06:29:22;56550.63;;;-142.13;76.23
11712;BME280;5912;51.034;6.984;2024-02-04T06:31:48;56576.69;;;-142.13;76.13
11712;BME280;5912;51.034;6.984;2024-02-04T06:34:13;56552.66;;;-142.13;76.15
11712;BME280;5912;51.034;6.984;2024-02-04T06:36:42;56550.63;;;-142.13;76.19
11712;BME280;5912;51.034;6.984;2024-02-04T06:39:09;56560.66;;;-142.13;75.89
11712;BME280;5912;51.034;6.984;2024-02-04T06:41:34;56558.66;;;-142.13;76.23
11712;BME280;5912;51.034;6.984;2024-02-04T06:44:00;56552.66;;;-142.13;76.02
11712;BME280;5912;51.034;6.984;2024-02-04T06:46:28;56542.63;;;-142.13;75.83
11712;BME280;5912;51.034;6.984;2024-02-04T06:48:53;56578.69;;;-142.13;75.93
11712;BME280;5912;51.034;6.984;2024-02-04T06:51:19;56570.69;;;-142.13;75.81
11712;BME280;5912;51.034;6.984;2024-02-04T06:53:45;56552.66;;;-142.13;76.22
11712;BME280;5912;51.034;6.984;2024-02-04T06:56:10;56582.69;;;-142.13;76.12
11712;BME280;5912;51.034;6.984;2024-02-04T06:58:39;56580.69;;;-142.13;76.28
11712;BME280;5912;51.034;6.984;2024-02-04T07:01:05;56548.63;;;-142.13;76.44
11712;BME280;5912;51.034;6.984;2024-02-04T07:03:31;56568.66;;;-142.13;76.60
11712;BME280;5912;51.034;6.984;2024-02-04T07:05:57;56554.66;;;-142.13;76.38
11712;BME280;5912;51.034;6.984;2024-02-04T07:08:22;56556.66;;;-142.13;76.72
11712;BME280;5912;51.034;6.984;2024-02-04T07:10:48;56526.59;;;-142.13;76.74
11712;BME280;5912;51.034;6.984;2024-02-04T07:13:13;56562.66;;;-142.13;76.82
11712;BME280;5912;51.034;6.984;2024-02-04T07:19:01;56546.63;;;-142.13;76.83
11712;BME280;5912;51.034;6.984;2024-02-04T07:21:26;56552.66;;;-142.13;77.18
11712;BME280;5912;51.034;6.984;2024-02-04T07:23:51;56574.69;;;-142.13;77.05
11712;BME280;5912;51.034;6.984;2024-02-04T07:26:17;56564.66;;;-142.13;77.27
11712;BME280;5912;51.034;6.984;2024-02-04T07:28:42;56568.66;;;-142.13;77.23
11712;BME280;5912;51.034;6.984;2024-02-04T07:31:07;56546.63;;;-142.13;77.00
11712;BME280;5912;51.034;6.984;2024-02-04T07:33:32;56590.72;;;-142.13;77.44
11712;BME280;5912;51.034;6.984;2024-02-04T07:35:58;56596.72;;;-142.13;77.42
11712;BME280;5912;51.034;6.984;2024-02-04T07:38:23;56606.75;;;-142.13;77.11
11712;BME280;5912;51.034;6.984;2024-02-04T07:40:48;56574.69;;;-142.13;77.26
11712;BME280;5912;51.034;6.984;2024-02-04T07:43:14;56558.66;;;-142.13;76.89
11712;BME280;5912;51.034;6.984;2024-02-04T07:45:39;56556.66;;;-142.13;76.93
11712;BME280;5912;51.034;6.984;2024-02-04T07:48:04;56584.69;;;-142.13;76.67
11712;BME280;5912;51.034;6.984;2024-02-04T07:50:30;56494.56;;;-142.13;76.77
11712;BME280;5912;51.034;6.984;2024-02-04T07:52:55;56556.66;;;-142.13;76.82
11712;BME280;5912;51.034;6.984;2024-02-04T07:55:20;56548.63;;;-142.13;76.93
11712;BME280;5912;51.034;6.984;2024-02-04T07:57:46;56572.69;;;-142.13;76.48
11712;BME280;5912;51.034;6.984;2024-02-04T08:00:12;56560.66;;;-142.13;76.47
11712;BME280;5912;51.034;6.984;2024-02-04T08:02:37;56544.63;;;-142.13;76.90
11712;BME280;5912;51.034;6.984;2024-02-04T08:05:04;56528.59;;;-142.13;76.54
11712;BME280;5912;51.034;6.984;2024-02-04T08:07:29;56544.63;;;-142.13;76.64
11712;BME280;5912;51.034;6.984;2024-02-04T08:09:55;56570.69;;;-142.13;76.75
11712;BME280;5912;51.034;6.984;2024-02-04T08:12:20;56550.63;;;-142.13;76.68
11712;BME280;5912;51.034;6.984;2024-02-04T08:14:46;56540.63;;;-142.13;76.69
11712;BME280;5912;51.034;6.984;2024-02-04T08:17:11;56572.69;;;-142.13;76.55
11712;BME280;5912;51.034;6.984;2024-02-04T08:19:36;56550.63;;;-142.13;76.60
11712;BME280;5912;51.034;6.984;2024-02-04T08:22:02;56562.66;;;-142.13;76.79
11712;BME280;5912;51.034;6.984;2024-02-04T08:24:27;56552.66;;;-142.13;77.07
11712;BME280;5912;51.034;6.984;2024-02-04T08:26:54;56576.69;;;-142.13;76.95
11712;BME280;5912;51.034;6.984;2024-02-04T08:29:20;56564.66;;;-142.13;76.93
11712;BME280;5912;51.034;6.984;2024-02-04T08:31:45;56536.63;;;-142.13;76.76
11712;BME280;5912;51.034;6.984;2024-02-04T08:34:10;56556.66;;;-142.13;76.69
11712;BME280;5912;51.034;6.984;2024-02-04T08:36:35;56570.69;;;-142.13;76.52
11712;BME280;5912;51.034;6.984;2024-02-04T08:39:01;56550.63;;;-142.13;76.37
11712;BME280;5912;51.034;6.984;2024-02-04T08:41:26;56524.59;;;-142.13;76.28
11712;BME280;5912;51.034;6.984;2024-02-04T08:43:54;56532.63;;;-142.13;76.35
11712;BME280;5912;51.034;6.984;2024-02-04T08:46:19;56570.69;;;-142.13;76.37
11712;BME280;5912;51.034;6.984;2024-02-04T08:48:45;56564.66;;;-142.13;76.00
11712;BME280;5912;51.034;6.984;2024-02-04T08:51:11;56552.66;;;-142.13;76.13
11712;BME280;5912;51.034;6.984;2024-02-04T08:53:37;56542.63;;;-142.13;75.89
11712;BME280;5912;51.034;6.984;2024-02-04T08:56:03;56538.63;;;-142.13;75.86
11712;BME280;5912;51.034;6.984;2024-02-04T08:58:29;56550.63;;;-142.13;75.74
11712;BME280;5912;51.034;6.984;2024-02-04T09:00:54;56560.66;;;-142.13;75.38
11712;BME280;5912;51.034;6.984;2024-02-04T09:03:19;56510.56;;;-142.13;74.77
11712;BME280;5912;51.034;6.984;2024-02-04T09:05:44;56506.56;;;-142.13;74.80
11712;BME280;5912;51.034;6.984;2024-02-04T09:08:10;56522.59;;;-142.13;74.50
11712;BME280;5912;51.034;6.984;2024-02-04T09:10:36;56520.59;;;-142.13;74.72
11712;BME280;5912;51.034;6.984;2024-02-04T09:13:01;56528.59;;;-142.13;74.53
11712;BME280;5912;51.034;6.984;2024-02-04T09:15:26;56534.63;;;-142.13;74.43
11712;BME280;5912;51.034;6.984;2024-02-04T09:17:51;56524.59;;;-142.13;74.40
11712;BME280;5912;51.034;6.984;2024-02-04T09:20:17;56534.63;;;-142.13;74.55
11712;BME280;5912;51.034;6.984;2024-02-04T09:22:42;56516.59;;;-142.13;74.41
11712;BME280;5912;51.034;6.984;2024-02-04T09:25:08;56564.66;;;-142.13;74.47
11712;BME280;5912;51.034;6.984;2024-02-04T09:27:33;56546.63;;;-142.13;74.76
11712;BME280;5912;51.034;6.984;2024-02-04T09:29:59;56522.59;;;-142.13;74.83
11712;BME280;5912;51.034;6.984;2024-02-04T09:32:24;56540.63;;;-142.13;74.85
11712;BME280;5912;51.034;6.984;2024-02-04T09:34:50;56528.59;;;-142.13;74.68
11712;BME280;5912;51.034;6.984;2024-02-04T09:37:15;56556.66;;;-142.13;74.85
11712;BME280;5912;51.034;6.984;2024-02-04T09:39:41;56536.63;;;-142.13;75.12
11712;BME280;5912;51.034;6.984;2024-02-04T09:42:06;56528.59;;;-142.13;75.13
11712;BME280;5912;51.034;6.984;2024-02-04T09:44:33;56536.63;;;-142.13;74.88
11712;BME280;5912;51.034;6.984;2024-02-04T09:46:58;56518.59;;;-142.13;74.35
11712;BME280;5912;51.034;6.984;2024-02-04T09:49:27;56532.63;;;-142.13;74.20
11712;BME280;5912;51.034;6.984;2024-02-04T09:51:52;56526.59;;;-142.13;74.08
11712;BME280;5912;51.034;6.984;2024-02-04T09:54:18;56532.63;;;-142.13;73.64
11712;BME280;5912;51.034;6.984;2024-02-04T09:56:47;56530.59;;;-142.13;73.31
11712;BME280;5912;51.034;6.984;2024-02-04T09:59:12;56528.59;;;-142.13;72.55
11712;BME280;5912;51.034;6.984;2024-02-04T10:01:38;56526.59;;;-142.13;72.68
11712;BME280;5912;51.034;6.984;2024-02-04T10:04:05;56504.56;;;-142.13;72.71
11712;BME280;5912;51.034;6.984;2024-02-04T10:06:30;56512.59;;;-142.13;72.16
11712;BME280;5912;51.034;6.984;2024-02-04T10:08:55;56492.53;;;-142.13;71.96
11712;BME280;5912;51.034;6.984;2024-02-04T10:11:21;56500.56;;;-142.13;71.77
11712;BME280;5912;51.034;6.984;2024-02-04T10:13:49;56492.53;;;-142.13;71.61
11712;BME280;5912;51.034;6.984;2024-02-04T10:16:16;56516.59;;;-142.13;71.28
11712;BME280;5912;51.034;6.984;2024-02-04T10:18:43;56514.59;;;-142.13;70.87
11712;BME280;5912;51.034;6.984;2024-02-04T10:21:18;56484.53;;;-142.13;70.81
11712;BME280;5912;51.034;6.984;2024-02-04T10:23:44;56638.78;;;-142.13;70.72
11712;BME280;5912;51.034;6.984;2024-02-04T10:26:10;56500.56;;;-142.13;70.18
11712;BME280;5912;51.034;6.984;2024-02-04T10:28:36;56516.59;;;-142.13;70.63
11712;BME280;5912;51.034;6.984;2024-02-04T10:31:02;56476.53;;;-142.13;70.62
11712;BME280;5912;51.034;6.984;2024-02-04T10:33:30;56504.56;;;-142.13;70.94
11712;BME280;5912;51.034;6.984;2024-02-04T10:35:56;56516.59;;;-142.13;71.31
11712;BME280;5912;51.034;6.984;2024-02-04T10:38:21;56484.53;;;-142.13;71.02
11712;BME280;5912;51.034;6.984;2024-02-04T10:40:47;56500.56;;;-142.13;71.12
11712;BME280;5912;51.034;6.984;2024-02-04T10:43:14;56500.56;;;-142.13;71.10
11712;BME280;5912;51.034;6.984;2024-02-04T10:45:42;56508.56;;;-142.13;70.64
11712;BME280;5912;51.034;6.984;2024-02-04T10:48:10;56516.59;;;-142.13;70.75
11712;BME280;5912;51.034;6.984;2024-02-04T10:50:37;56514.59;;;-142.13;70.95
11712;BME280;5912;51.034;6.984;2024-02-04T10:53:08;56534.63;;;-142.13;70.99
11712;BME280;5912;51.034;6.984;2024-02-04T10:55:41;56518.59;;;-142.13;70.62
11712;BME280;5912;51.034;6.984;2024-02-04T10:58:12;56508.56;;;-142.13;70.33
11712;BME280;5912;51.034;6.984;2024-02-04T11:00:37;56516.59;;;-142.13;69.84
11712;BME280;5912;51.034;6.984;2024-02-04T11:03:03;56534.63;;;-142.13;70.77
11712;BME280;5912;51.034;6.984;2024-02-04T11:05:30;56500.56;;;-142.13;70.78
11712;BME280;5912;51.034;6.984;2024-02-04T11:07:56;56530.59;;;-142.13;70.81
11712;BME280;5912;51.034;6.984;2024-02-04T11:10:22;56516.59;;;-142.13;71.13
11712;BME280;5912;51.034;6.984;2024-02-04T11:12:49;56488.53;;;-142.13;71.40
11712;BME280;5912;51.034;6.984;2024-02-04T11:15:16;56540.63;;;-142.13;71.63
11712;BME280;5912;51.034;6.984;2024-02-04T11:26:00;56506.56;;;-142.13;72.84
11712;BME280;5912;51.034;6.984;2024-02-04T11:28:26;56536.63;;;-142.13;73.61
11712;BME280;5912;51.034;6.984;2024-02-04T11:30:52;56496.56;;;-142.13;74.19
11712;BME280;5912;51.034;6.984;2024-02-04T11:33:19;56516.59;;;-142.13;74.73
11712;BME280;5912;51.034;6.984;2024-02-04T11:35:45;56556.66;;;-142.13;74.99
11712;BME280;5912;51.034;6.984;2024-02-04T11:38:10;56596.72;;;-142.13;74.80
11712;BME280;5912;51.034;6.984;2024-02-04T11:40:39;56528.59;;;-142.13;74.90
11712;BME280;5912;51.034;6.984;2024-02-04T11:43:07;56532.63;;;-142.13;75.04
11712;BME280;5912;51.034;6.984;2024-02-04T11:45:42;56542.63;;;-142.13;74.88
11712;BME280;5912;51.034;6.984;2024-02-04T11:48:10;56554.66;;;-142.13;74.28
11712;BME280;5912;51.034;6.984;2024-02-04T11:50:36;56564.66;;;-142.13;74.61
11712;BME280;5912;51.034;6.984;2024-02-04T11:53:06;56516.59;;;-142.13;74.58
11712;BME280;5912;51.034;6.984;2024-02-04T11:55:32;56534.63;;;-142.13;74.27
11712;BME280;5912;51.034;6.984;2024-02-04T11:57:57;56514.59;;;-142.13;73.59
11712;BME280;5912;51.034;6.984;2024-02-04T12:00:23;56578.69;;;-142.13;73.53
11712;BME280;5912;51.034;6.984;2024-02-04T12:02:59;56518.59;;;-142.13;73.26
11712;BME280;5912;51.034;6.984;2024-02-04T12:05:25;56534.63;;;-142.13;73.18
11712;BME280;5912;51.034;6.984;2024-02-04T12:07:51;56514.59;;;-142.13;72.46
11712;BME280;5912;51.034;6.984;2024-02-04T12:10:16;56526.59;;;-142.13;72.22
11712;BME280;5912;51.034;6.984;2024-02-04T12:12:42;56524.59;;;-142.13;72.18
11712;BME280;5912;51.034;6.984;2024-02-04T12:15:07;56538.63;;;-142.13;72.36
11712;BME280;5912;51.034;6.984;2024-02-04T12:17:32;56514.59;;;-142.13;72.80
11712;BME280;5912;51.034;6.984;2024-02-04T12:19:57;56538.63;;;-142.13;73.41
11712;BME280;5912;51.034;6.984;2024-02-04T12:22:23;56528.59;;;-142.13;73.04
11712;BME280;5912;51.034;6.984;2024-02-04T12:24:48;56516.59;;;-142.13;73.52
11712;BME280;5912;51.034;6.984;2024-02-04T12:27:15;56536.63;;;-142.13;73.73
11712;BME280;5912;51.034;6.984;2024-02-04T12:29:41;56532.63;;;-142.13;73.22
11712;BME280;5912;51.034;6.984;2024-02-04T12:32:06;56528.59;;;-142.13;72.52
11712;BME280;5912;51.034;6.984;2024-02-04T12:34:32;56524.59;;;-142.13;73.45
11712;BME280;5912;51.034;6.984;2024-02-04T12:37:00;56572.69;;;-142.13;72.95
11712;BME280;5912;51.034;6.984;2024-02-04T12:39:25;56516.59;;;-142.13;73.49
11712;BME280;5912;51.034;6.984;2024-02-04T12:41:51;56504.56;;;-142.13;73.57
11712;BME280;5912;51.034;6.984;2024-02-04T12:44:18;56528.59;;;-142.13;73.63
11712;BME280;5912;51.034;6.984;2024-02-04T12:46:43;56518.59;;;-142.13;73.86
11712;BME280;5912;51.034;6.984;2024-02-04T12:49:09;56710.91;;;-142.13;74.06
11712;BME280;5912;51.034;6.984;2024-02-04T12:51:34;56512.59;;;-142.13;74.32
11712;BME280;5912;51.034;6.984;2024-02-04T12:54:08;56572.69;;;-142.13;74.73
11712;BME280;5912;51.034;6.984;2024-02-04T12:56:53;56534.63;;;-142.13;74.69